createdAt,value
2024-02-27T00:02:24.898Z,10.68
2024-02-27T00:04:51.429Z,10.48
2024-02-27T00:07:18.230Z,11.50
2024-02-27T00:09:45.604Z,11.32
2024-02-27T00:12:12.466Z,11.20
2024-02-27T00:14:40.535Z,10.63
2024-02-27T00:17:07.179Z,10.63
2024-02-27T00:19:34.073Z,11.73
2024-02-27T00:22:00.825Z,9.80
2024-02-27T00:24:27.467Z,10.25
2024-02-27T00:26:54.160Z,10.25
2024-02-27T00:29:21.605Z,10.45
2024-02-27T00:31:49.541Z,8.90
2024-02-27T00:34:17.123Z,10.60
2024-02-27T00:36:43.959Z,10.45
2024-02-27T00:39:10.667Z,10.43
2024-02-27T00:41:40.296Z,10.60
2024-02-27T00:44:08.457Z,10.48
2024-02-27T00:46:35.125Z,11.18
2024-02-27T00:49:03.092Z,10.35
2024-02-27T00:51:29.743Z,9.98
2024-02-27T00:53:56.473Z,9.70
2024-02-27T00:56:23.169Z,9.73
2024-02-27T00:58:49.808Z,10.13
2024-02-27T01:01:16.566Z,10.65
2024-02-27T01:03:43.221Z,10.05
2024-02-27T01:06:11.456Z,8.95
2024-02-27T01:08:38.286Z,8.93
2024-02-27T01:11:05.064Z,10.32
2024-02-27T01:13:31.695Z,7.95
2024-02-27T01:15:58.327Z,10.40
2024-02-27T01:18:24.983Z,11.13
2024-02-27T01:20:51.688Z,10.88
2024-02-27T01:23:20.699Z,11.02
2024-02-27T01:25:47.633Z,9.57
2024-02-27T01:28:14.370Z,10.07
2024-02-27T01:30:41.021Z,10.30
2024-02-27T01:33:07.781Z,9.10
2024-02-27T01:35:34.567Z,9.98
2024-02-27T01:38:01.162Z,9.85
2024-02-27T01:40:29.060Z,8.20
2024-02-27T01:42:55.656Z,10.00
2024-02-27T01:45:23.390Z,8.30
2024-02-27T01:47:50.263Z,10.23
2024-02-27T01:50:18.491Z,9.50
2024-02-27T01:52:46.225Z,10.38
2024-02-27T01:55:13.986Z,10.07
2024-02-27T01:57:42.440Z,9.80
2024-02-27T02:00:15.618Z,11.20
2024-02-27T02:02:45.491Z,10.00
2024-02-27T02:05:12.744Z,10.55
2024-02-27T02:07:41.180Z,10.43
2024-02-27T02:10:11.455Z,10.98
2024-02-27T02:12:38.282Z,10.30
2024-02-27T02:15:07.840Z,10.65
2024-02-27T02:17:35.493Z,10.32
2024-02-27T02:20:06.205Z,10.52
2024-02-27T02:22:34.984Z,10.68
2024-02-27T02:25:02.295Z,10.10
2024-02-27T02:27:30.139Z,9.07
2024-02-27T02:29:57.430Z,9.80
2024-02-27T02:32:24.104Z,10.85
2024-02-27T02:34:50.735Z,8.30
2024-02-27T02:37:17.311Z,9.63
2024-02-27T02:39:45.300Z,10.55
2024-02-27T02:42:12.005Z,9.23
2024-02-27T02:44:38.653Z,8.90
2024-02-27T02:47:05.301Z,8.52
2024-02-27T02:49:32.260Z,10.35
2024-02-27T02:51:59.175Z,10.45
2024-02-27T02:54:25.833Z,9.52
2024-02-27T02:56:53.763Z,11.07
2024-02-27T02:59:22.341Z,10.13
2024-02-27T03:01:48.901Z,10.02
2024-02-27T03:04:15.456Z,10.98
2024-02-27T03:06:42.195Z,10.20
2024-02-27T03:09:09.535Z,10.18
2024-02-27T03:11:36.271Z,10.57
2024-02-27T03:14:04.471Z,9.35
2024-02-27T03:16:31.086Z,7.88
2024-02-27T03:18:57.807Z,11.32
2024-02-27T03:21:24.567Z,11.00
2024-02-27T03:23:51.142Z,10.18
2024-02-27T03:26:17.947Z,10.88
2024-02-27T03:28:44.529Z,11.10
2024-02-27T03:31:12.441Z,10.80
2024-02-27T03:33:39.069Z,10.20
2024-02-27T03:36:06.576Z,9.60
2024-02-27T03:38:33.333Z,10.48
2024-02-27T03:40:59.986Z,9.88
2024-02-27T03:43:26.555Z,9.93
2024-02-27T03:45:53.225Z,9.73
2024-02-27T03:48:21.489Z,9.73
2024-02-27T03:50:48.178Z,9.68
2024-02-27T03:53:14.804Z,10.45
2024-02-27T03:55:41.517Z,9.93
2024-02-27T03:58:08.162Z,9.15
2024-02-27T04:00:34.920Z,10.68
2024-02-27T04:03:01.644Z,11.55
2024-02-27T04:05:29.776Z,10.27
2024-02-27T04:07:56.338Z,10.30
2024-02-27T04:10:22.996Z,9.98
2024-02-27T04:12:49.631Z,11.00
2024-02-27T04:15:16.369Z,10.45
2024-02-27T04:17:42.982Z,10.80
2024-02-27T04:20:10.541Z,9.55
2024-02-27T04:22:38.555Z,10.48
2024-02-27T04:25:06.083Z,10.23
2024-02-27T04:29:59.495Z,9.35
2024-02-27T04:32:26.117Z,8.02
2024-02-27T04:34:52.741Z,10.85
2024-02-27T04:37:19.354Z,9.27
2024-02-27T04:39:47.435Z,8.10
2024-02-27T04:42:14.192Z,10.55
2024-02-27T04:44:40.783Z,9.95
2024-02-27T04:47:07.391Z,8.98
2024-02-27T04:49:34.382Z,9.02
2024-02-27T04:52:01.040Z,10.25
2024-02-27T04:54:27.744Z,10.45
2024-02-27T04:56:55.787Z,10.43
2024-02-27T04:59:22.478Z,10.95
2024-02-27T05:01:51.672Z,9.85
2024-02-27T05:04:19.942Z,10.18
2024-02-27T05:06:46.723Z,10.93
2024-02-27T05:09:13.623Z,12.75
2024-02-27T05:11:40.308Z,11.77
2024-02-27T05:14:08.357Z,10.82
2024-02-27T05:16:34.951Z,10.80
2024-02-27T05:19:01.680Z,11.25
2024-02-27T05:21:29.365Z,11.63
2024-02-27T05:23:56.157Z,10.65
2024-02-27T05:26:22.708Z,11.75
2024-02-27T05:28:49.561Z,10.40
2024-02-27T05:31:25.366Z,11.18
2024-02-27T05:33:52.268Z,10.90
2024-02-27T05:36:19.868Z,10.00
2024-02-27T05:41:13.343Z,11.75
2024-02-27T05:43:40.175Z,10.25
2024-02-27T05:46:07.251Z,12.15
2024-02-27T05:48:35.624Z,10.85
2024-02-27T05:51:02.225Z,11.75
2024-02-27T05:53:31.215Z,10.75
2024-02-27T05:55:58.134Z,10.30
2024-02-27T05:58:25.131Z,9.82
2024-02-27T06:00:52.411Z,11.05
2024-02-27T06:03:19.148Z,10.70
2024-02-27T06:05:47.310Z,10.80
2024-02-27T06:08:16.689Z,11.65
2024-02-27T06:10:43.310Z,11.50
2024-02-27T06:13:09.938Z,11.25
2024-02-27T06:15:36.612Z,11.52
2024-02-27T06:18:04.232Z,10.35
2024-02-27T06:23:18.103Z,9.80
2024-02-27T06:25:44.773Z,9.80
2024-02-27T06:28:11.357Z,10.60
2024-02-27T06:30:38.034Z,11.68
2024-02-27T06:33:05.232Z,10.95
2024-02-27T06:35:31.882Z,10.80
2024-02-27T06:37:58.491Z,11.25
2024-02-27T06:40:26.613Z,10.75
2024-02-27T06:42:53.162Z,11.88
2024-02-27T06:45:20.440Z,11.02
2024-02-27T06:47:47.592Z,10.63
2024-02-27T06:50:14.400Z,10.43
2024-02-27T06:52:41.333Z,12.00
2024-02-27T06:55:07.896Z,11.15
2024-02-27T06:57:35.921Z,10.27
2024-02-27T07:00:02.920Z,11.48
2024-02-27T07:02:29.571Z,11.65
2024-02-27T07:04:56.131Z,12.18
2024-02-27T07:07:22.807Z,11.50
2024-02-27T07:09:49.481Z,13.00
2024-02-27T07:12:16.095Z,11.50
2024-02-27T07:14:44.108Z,11.32
2024-02-27T07:17:10.790Z,11.60
2024-02-27T07:19:37.712Z,11.68
2024-02-27T07:22:05.001Z,11.15
2024-02-27T07:24:31.599Z,13.40
2024-02-27T07:26:58.279Z,12.98
2024-02-27T07:29:24.826Z,13.93
2024-02-27T07:31:53.480Z,14.05
2024-02-27T07:34:22.969Z,13.50
2024-02-27T07:36:50.238Z,14.65
2024-02-27T07:39:16.899Z,13.55
2024-02-27T07:41:44.517Z,12.43
2024-02-27T07:46:37.538Z,11.45
2024-02-27T07:49:05.522Z,13.00
2024-02-27T07:51:34.076Z,13.60
2024-02-27T07:54:01.211Z,12.30
2024-02-27T07:56:31.407Z,13.38
2024-02-27T07:58:58.365Z,13.25
2024-02-27T08:01:27.788Z,11.65
2024-02-27T08:03:54.733Z,11.43
2024-02-27T08:06:24.182Z,13.88
2024-02-27T08:08:53.487Z,11.90
2024-02-27T08:11:20.144Z,13.10
2024-02-27T08:13:46.796Z,14.45
2024-02-27T08:16:13.505Z,13.70
2024-02-27T08:18:40.268Z,13.32
2024-02-27T08:21:06.997Z,13.68
2024-02-27T08:23:35.578Z,14.18
2024-02-27T08:26:02.951Z,13.52
2024-02-27T08:30:56.250Z,13.05
2024-02-27T08:33:23.046Z,12.63
2024-02-27T08:35:49.819Z,12.23
2024-02-27T08:38:16.361Z,13.52
2024-02-27T08:40:45.751Z,13.65
2024-02-27T08:43:15.214Z,13.50
2024-02-27T08:45:42.438Z,13.45
2024-02-27T08:48:09.143Z,13.50
2024-02-27T08:50:35.752Z,13.02
2024-02-27T08:53:02.342Z,14.02
2024-02-27T08:55:31.109Z,13.02
2024-02-27T08:57:59.071Z,14.00
2024-02-27T09:00:26.831Z,12.20
2024-02-27T09:02:53.408Z,14.02
2024-02-27T09:05:19.946Z,12.00
2024-02-27T09:07:46.539Z,14.00
2024-02-27T09:10:13.225Z,13.05
2024-02-27T09:12:40.587Z,12.68
2024-02-27T09:15:09.608Z,13.82
2024-02-27T09:17:36.436Z,13.55
2024-02-27T09:20:03.689Z,12.52
2024-02-27T09:22:32.149Z,12.57
2024-02-27T09:24:58.780Z,11.82
2024-02-27T09:27:25.341Z,12.40
2024-02-27T09:29:52.574Z,12.52
2024-02-27T09:32:24.205Z,13.57
2024-02-27T09:34:51.875Z,14.77
2024-02-27T09:37:19.606Z,13.90
2024-02-27T09:39:54.239Z,13.32
2024-02-27T09:42:34.528Z,13.60
2024-02-27T09:45:05.495Z,14.27
2024-02-27T09:47:35.469Z,12.32
2024-02-27T09:50:02.619Z,13.18
2024-02-27T09:52:29.950Z,12.85
2024-02-27T09:54:57.903Z,13.65
2024-02-27T09:57:25.340Z,13.80
2024-02-27T10:02:19.761Z,14.20
2024-02-27T10:04:47.825Z,13.80
2024-02-27T10:07:16.102Z,14.38
2024-02-27T10:09:45.509Z,13.88
2024-02-27T10:12:13.780Z,14.32
2024-02-27T10:14:40.952Z,15.60
2024-02-27T10:17:08.800Z,14.73
2024-02-27T10:19:36.461Z,15.00
2024-02-27T10:22:05.163Z,12.48
2024-02-27T10:24:31.935Z,12.70
2024-02-27T10:26:59.583Z,13.52
2024-02-27T10:29:27.601Z,12.55
2024-02-27T10:31:54.626Z,13.30
2024-02-27T10:34:21.650Z,13.38
2024-02-27T10:36:57.275Z,13.07
2024-02-27T10:39:25.410Z,11.13
2024-02-27T10:41:52.609Z,12.25
2024-02-27T10:44:19.493Z,13.68
2024-02-27T10:46:47.282Z,12.10
2024-02-27T10:49:14.428Z,12.75
2024-02-27T10:51:42.809Z,12.05
2024-02-27T10:54:09.577Z,11.77
2024-02-27T10:56:37.560Z,11.90
2024-02-27T10:59:05.685Z,11.60
2024-02-27T11:01:33.574Z,11.85
2024-02-27T11:04:04.356Z,12.13
2024-02-27T11:06:31.307Z,11.55
2024-02-27T11:09:04.508Z,12.55
2024-02-27T11:11:31.641Z,11.95
2024-02-27T11:14:01.902Z,12.25
2024-02-27T11:16:29.774Z,12.95
2024-02-27T11:19:00.764Z,11.43
2024-02-27T11:21:29.006Z,12.57
2024-02-27T11:23:55.675Z,12.07
2024-02-27T11:26:22.815Z,13.93
2024-02-27T11:28:50.793Z,11.95
2024-02-27T11:31:22.158Z,11.90
2024-02-27T11:33:49.808Z,11.88
2024-02-27T11:36:16.733Z,11.90
2024-02-27T11:38:44.485Z,12.45
2024-02-27T11:41:13.936Z,10.35
2024-02-27T11:43:40.660Z,13.25
2024-02-27T11:46:36.925Z,11.73
2024-02-27T11:49:04.969Z,11.25
2024-02-27T11:51:34.193Z,11.55
2024-02-27T11:54:00.918Z,10.52
2024-02-27T11:56:27.915Z,10.57
2024-02-27T11:58:54.775Z,11.27
2024-02-27T12:01:23.384Z,11.15
2024-02-27T12:03:52.246Z,11.75
2024-02-27T12:06:19.292Z,12.05
2024-02-27T12:08:47.294Z,12.48
2024-02-27T12:11:15.488Z,11.18
2024-02-27T12:13:43.556Z,10.45
2024-02-27T12:16:10.175Z,11.63
2024-02-27T12:18:36.992Z,11.60
2024-02-27T12:21:05.788Z,10.65
2024-02-27T12:23:32.750Z,10.65
2024-02-27T12:25:59.599Z,11.02
2024-02-27T12:28:26.464Z,11.60
2024-02-27T12:30:53.080Z,11.25
2024-02-27T12:33:20.064Z,11.32
2024-02-27T12:35:46.938Z,11.48
2024-02-27T12:38:15.169Z,10.27
2024-02-27T12:40:42.764Z,10.40
2024-02-27T12:43:09.634Z,10.88
2024-02-27T12:45:36.313Z,10.27
2024-02-27T12:48:04.466Z,11.10
2024-02-27T12:50:31.530Z,10.60
2024-02-27T12:53:06.879Z,10.07
2024-02-27T12:55:40.705Z,9.18
2024-02-27T12:58:07.541Z,11.05
2024-02-27T13:00:34.749Z,11.02
2024-02-27T13:05:28.765Z,10.52
2024-02-27T13:07:56.903Z,10.65
2024-02-27T13:10:23.921Z,10.93
2024-02-27T13:13:09.861Z,11.05
2024-02-27T13:15:36.939Z,11.13
2024-02-27T13:18:04.220Z,10.85
2024-02-27T13:20:31.020Z,11.40
2024-02-27T13:23:02.911Z,11.88
2024-02-27T13:25:32.692Z,10.57
2024-02-27T13:27:59.230Z,10.85
2024-02-27T13:30:27.317Z,11.35
2024-02-27T13:32:53.950Z,10.13
2024-02-27T13:35:20.807Z,11.40
2024-02-27T13:37:48.216Z,11.90
2024-02-27T13:40:14.802Z,10.88
2024-02-27T13:42:41.429Z,10.35
2024-02-27T13:45:08.719Z,11.13
2024-02-27T13:47:36.732Z,11.10
2024-02-27T13:50:03.605Z,10.50
2024-02-27T13:52:30.268Z,11.18
2024-02-27T13:54:58.011Z,11.10
2024-02-27T13:57:26.167Z,10.55
2024-02-27T13:59:53.884Z,11.73
2024-02-27T14:02:20.500Z,11.48
2024-02-27T14:04:48.470Z,11.55
2024-02-27T14:07:15.240Z,10.82
2024-02-27T14:09:44.321Z,10.13
2024-02-27T14:12:12.186Z,10.93
2024-02-27T14:17:06.044Z,11.57
2024-02-27T14:19:32.744Z,10.27
2024-02-27T14:22:00.755Z,11.40
2024-02-27T14:24:27.405Z,10.45
2024-02-27T14:26:54.028Z,10.43
2024-02-27T14:29:20.943Z,11.27
2024-02-27T14:31:47.513Z,10.30
2024-02-27T14:34:15.543Z,10.52
2024-02-27T14:36:42.455Z,10.60
2024-02-27T14:39:10.491Z,11.10
2024-02-27T14:41:38.215Z,11.15
2024-02-27T14:44:08.741Z,10.43
2024-02-27T14:46:35.873Z,9.88
2024-02-27T14:49:02.737Z,10.43
2024-02-27T14:51:30.065Z,10.55
2024-02-27T14:53:56.671Z,10.07
2024-02-27T14:56:24.679Z,10.48
2024-02-27T14:58:52.174Z,8.95
2024-02-27T15:03:45.676Z,10.30
2024-02-27T15:06:12.923Z,10.52
2024-02-27T15:08:39.858Z,9.52
2024-02-27T15:11:06.557Z,10.20
2024-02-27T15:13:34.523Z,10.05
2024-02-27T15:16:01.074Z,10.30
2024-02-27T15:18:27.814Z,9.93
2024-02-27T15:20:57.293Z,9.77
2024-02-27T15:23:24.158Z,9.77
2024-02-27T15:25:50.735Z,9.18
2024-02-27T15:28:17.943Z,9.65
2024-02-27T15:30:45.953Z,9.10
2024-02-27T15:33:12.740Z,10.20
2024-02-27T15:35:42.051Z,11.05
2024-02-27T15:38:09.964Z,9.68
2024-02-27T15:40:36.536Z,10.75
2024-02-27T15:43:03.215Z,9.75
2024-02-27T15:45:29.770Z,10.05
2024-02-27T15:47:57.839Z,9.50
2024-02-27T15:50:24.585Z,10.57
2024-02-27T15:52:51.224Z,9.70
2024-02-27T15:55:18.355Z,9.75
2024-02-27T15:57:45.077Z,9.30
2024-02-27T16:00:13.008Z,10.48
2024-02-27T16:02:39.652Z,9.75
2024-02-27T16:05:10.385Z,9.25
2024-02-27T16:07:41.244Z,9.40
2024-02-27T16:10:09.821Z,9.70
2024-02-27T16:12:38.916Z,10.15
2024-02-27T16:15:07.422Z,10.13
2024-02-27T16:17:34.290Z,9.90
2024-02-27T16:20:01.125Z,10.07
2024-02-27T16:22:29.769Z,10.35
2024-02-27T16:24:56.582Z,9.90
2024-02-27T16:27:23.313Z,11.48
2024-02-27T16:29:49.948Z,10.88
2024-02-27T16:32:16.716Z,11.77
2024-02-27T16:34:43.435Z,10.35
2024-02-27T16:37:10.956Z,10.30
2024-02-27T16:42:05.835Z,9.60
2024-02-27T16:44:32.501Z,10.80
2024-02-27T16:46:59.176Z,10.45
2024-02-27T16:49:25.918Z,10.38
2024-02-27T16:51:52.747Z,10.55
2024-02-27T16:54:19.471Z,11.65
2024-02-27T16:56:47.428Z,10.63
2024-02-27T16:59:13.998Z,10.00
2024-02-27T17:01:40.785Z,11.50
2024-02-27T17:04:07.625Z,11.30
2024-02-27T17:06:34.559Z,11.20
2024-02-27T17:09:01.134Z,10.90
2024-02-27T17:11:27.722Z,10.73
2024-02-27T17:13:55.657Z,11.50
2024-02-27T17:16:22.242Z,10.57
2024-02-27T17:18:49.039Z,10.77
2024-02-27T17:21:15.850Z,11.13
2024-02-27T17:23:42.476Z,11.13
2024-02-27T17:26:11.072Z,10.75
2024-02-27T17:28:37.681Z,10.25
2024-02-27T17:31:05.965Z,11.63
2024-02-27T17:33:32.915Z,10.52
2024-02-27T17:36:00.600Z,11.20
2024-02-27T17:38:27.645Z,12.55
2024-02-27T17:40:54.197Z,11.40
2024-02-27T17:43:20.862Z,10.68
2024-02-27T17:45:49.795Z,10.90
2024-02-27T17:48:18.085Z,11.55
2024-02-27T17:50:44.750Z,12.32
2024-02-27T17:53:11.367Z,13.63
2024-02-27T17:55:38.112Z,13.13
2024-02-27T17:58:06.814Z,11.82
2024-02-27T18:00:33.814Z,10.75
2024-02-27T18:03:00.797Z,13.23
2024-02-27T18:05:28.933Z,11.57
2024-02-27T18:07:55.606Z,11.50
2024-02-27T18:10:22.156Z,11.75
2024-02-27T18:12:48.869Z,11.75
2024-02-27T18:15:20.024Z,10.52
2024-02-27T18:17:49.448Z,11.30
2024-02-27T18:20:16.809Z,12.75
2024-02-27T18:22:45.283Z,14.23
2024-02-27T18:25:13.154Z,11.65
2024-02-27T18:27:40.465Z,12.20
2024-02-27T18:30:09.208Z,11.63
2024-02-27T18:32:38.192Z,11.73
2024-02-27T18:35:05.650Z,13.35
2024-02-27T18:37:32.313Z,11.40
2024-02-27T18:40:01.012Z,11.30
2024-02-27T18:42:27.716Z,12.05
2024-02-27T18:44:54.370Z,12.52
2024-02-27T18:47:21.245Z,12.23
2024-02-27T18:49:49.465Z,12.15
2024-02-27T18:52:16.950Z,13.00
2024-02-27T18:54:43.903Z,12.90
2024-02-27T18:57:12.008Z,12.38
2024-02-27T18:59:38.690Z,12.02
2024-02-27T19:02:05.585Z,15.02
2024-02-27T19:04:32.226Z,14.20
2024-02-27T19:06:59.365Z,13.95
2024-02-27T19:09:26.539Z,13.43
2024-02-27T19:11:56.380Z,13.40
2024-02-27T19:14:24.815Z,13.88
2024-02-27T19:16:51.442Z,14.13
2024-02-27T19:19:18.484Z,13.27
2024-02-27T19:21:45.183Z,13.23
2024-02-27T19:24:11.927Z,12.77
2024-02-27T19:26:38.549Z,11.27
2024-02-27T19:29:05.285Z,13.00
2024-02-27T19:31:33.238Z,13.55
2024-02-27T19:34:00.020Z,13.80
2024-02-27T19:36:26.750Z,14.02
2024-02-27T19:38:53.382Z,12.85
2024-02-27T19:41:19.964Z,12.50
2024-02-27T19:43:46.678Z,12.35
2024-02-27T19:46:14.996Z,13.25
2024-02-27T19:48:43.067Z,11.80
2024-02-27T19:51:12.958Z,13.10
2024-02-27T19:53:39.645Z,13.30
2024-02-27T19:56:06.454Z,12.73
2024-02-27T19:58:33.123Z,11.57
2024-02-27T20:00:59.819Z,11.52
2024-02-27T20:03:26.624Z,13.15
2024-02-27T20:05:54.640Z,11.90
2024-02-27T20:08:21.793Z,13.00
2024-02-27T20:10:48.437Z,12.13
2024-02-27T20:13:20.128Z,12.00
2024-02-27T20:15:47.203Z,13.77
2024-02-27T20:18:13.794Z,15.25
2024-02-27T20:20:41.786Z,15.23
2024-02-27T20:23:10.849Z,14.68
2024-02-27T20:25:37.518Z,13.20
2024-02-27T20:28:04.650Z,14.55
2024-02-27T20:30:31.405Z,16.48
2024-02-27T20:32:58.251Z,19.00
2024-02-27T20:35:24.863Z,22.48
2024-02-27T20:37:52.496Z,20.33
2024-02-27T20:40:21.543Z,19.83
2024-02-27T20:42:48.243Z,20.50
2024-02-27T20:45:15.008Z,20.42
2024-02-27T20:47:42.081Z,22.60
2024-02-27T20:50:11.728Z,20.83
2024-02-27T20:52:38.690Z,18.70
2024-02-27T20:55:06.210Z,19.30
2024-02-27T20:57:34.238Z,18.80
2024-02-27T21:00:01.036Z,19.30
2024-02-27T21:02:29.836Z,19.85
2024-02-27T21:04:57.688Z,19.02
2024-02-27T21:07:25.203Z,19.48
2024-02-27T21:09:51.854Z,16.98
2024-02-27T21:12:18.565Z,17.20
2024-02-27T21:14:46.517Z,17.15
2024-02-27T21:17:13.183Z,16.00
2024-02-27T21:19:39.877Z,17.38
2024-02-27T21:22:06.521Z,15.55
2024-02-27T21:24:33.170Z,14.05
2024-02-27T21:26:59.778Z,14.10
2024-02-27T21:29:26.339Z,12.90
2024-02-27T21:31:54.284Z,15.20
2024-02-27T21:34:20.955Z,14.20
2024-02-27T21:36:47.670Z,17.45
2024-02-27T21:39:14.591Z,15.80
2024-02-27T21:41:41.711Z,13.43
2024-02-27T21:44:08.465Z,13.60
2024-02-27T21:46:35.701Z,14.93
2024-02-27T21:49:03.796Z,14.57
2024-02-27T21:51:30.490Z,14.77
2024-02-27T21:53:57.118Z,16.77
2024-02-27T21:56:23.774Z,17.15
2024-02-27T21:58:50.352Z,15.25
2024-02-27T22:01:17.049Z,15.85
2024-02-27T22:03:45.211Z,15.23
2024-02-27T22:06:13.219Z,15.90
2024-02-27T22:08:40.876Z,17.55
2024-02-27T22:13:35.419Z,16.70
2024-02-27T22:16:02.143Z,17.02
2024-02-27T22:18:29.289Z,17.02
2024-02-27T22:20:55.888Z,15.98
2024-02-27T22:23:23.874Z,16.45
2024-02-27T22:25:52.704Z,16.08
2024-02-27T22:28:19.519Z,15.50
2024-02-27T22:30:46.269Z,16.23
2024-02-27T22:33:13.426Z,15.70
2024-02-27T22:35:40.774Z,15.88
2024-02-27T22:38:09.401Z,14.23
2024-02-27T22:40:38.552Z,14.75
2024-02-27T22:43:05.128Z,15.43
2024-02-27T22:45:31.758Z,14.95
2024-02-27T22:47:58.419Z,15.93
2024-02-27T22:50:25.173Z,15.50
2024-02-27T22:52:51.808Z,15.10
2024-02-27T22:55:18.380Z,14.30
2024-02-27T22:57:46.441Z,14.23
2024-02-27T23:00:16.443Z,16.58
2024-02-27T23:02:43.029Z,14.23
2024-02-27T23:05:10.356Z,16.10
2024-02-27T23:07:37.300Z,16.30
2024-02-27T23:10:07.763Z,15.93
2024-02-27T23:12:34.464Z,16.63
2024-02-27T23:15:02.495Z,17.15
2024-02-27T23:17:29.056Z,15.40
2024-02-27T23:19:55.672Z,16.02
2024-02-27T23:22:22.209Z,15.50
2024-02-27T23:24:48.846Z,16.38
2024-02-27T23:27:15.595Z,16.33
2024-02-27T23:29:42.167Z,14.40
2024-02-27T23:32:10.156Z,15.93
2024-02-27T23:34:36.679Z,15.50
2024-02-27T23:37:03.748Z,15.20
2024-02-27T23:39:30.394Z,15.77
2024-02-27T23:41:56.953Z,15.43
2024-02-27T23:44:23.621Z,14.98
2024-02-27T23:46:50.210Z,15.48
2024-02-27T23:49:18.095Z,15.05
2024-02-27T23:51:44.705Z,14.63
2024-02-27T23:54:11.372Z,15.93
2024-02-27T23:56:37.935Z,14.70
2024-02-27T23:59:04.557Z,16.73
